Time;durP1;ratioP1;P1;durP2;ratioP2;P2;SDS_P1;SDS_P2;PMS_P1;PMS_P2;Temp;Humidity;BMP_temperature;BMP_pressure;BME280_temperature;BME280_humidity;BME280_pressure;Samples;Min_cycle;Max_cycle;Signal;HPM_P1;HPM_P2
2022/01/13 00:00:27;;;;;;;44.83;21.92;;;4.70;74.60;;;;;;5047772;28;20082;-76
2022/01/13 00:02:52;;;;;;;43.35;22.00;;;4.70;74.70;;;;;;5047832;28;20028;-76
2022/01/13 00:05:25;;;;;;;45.15;22.58;;;4.60;74.80;;;;;;5047288;28;20353;-77
2022/01/13 00:07:55;;;;;;;43.17;21.65;;;4.70;74.70;;;;;;5047995;28;20036;-76
2022/01/13 00:10:21;;;;;;;46.30;22.13;;;4.70;75.00;;;;;;5047462;28;20403;-76
2022/01/13 00:12:47;;;;;;;46.75;22.33;;;4.70;75.00;;;;;;5047730;28;20404;-76
2022/01/13 00:15:37;;;;;;;51.08;23.77;;;4.70;75.00;;;;;;5047724;28;20036;-76
2022/01/13 00:18:14;;;;;;;45.92;21.70;;;4.70;75.00;;;;;;5047497;28;20021;-76
2022/01/13 00:26:02;;;;;;;;;;;4.70;75.30;;;;;;5044325;28;20059;-76
2022/01/13 00:28:28;;;;;;;41.10;19.88;;;4.70;75.20;;;;;;5048122;28;19999;-76
2022/01/13 00:30:56;;;;;;;45.72;21.77;;;4.60;75.60;;;;;;5046049;28;20040;-76
2022/01/13 00:33:24;;;;;;;45.08;22.27;;;4.60;75.80;;;;;;5046618;28;20025;-76
2022/01/13 00:35:56;;;;;;;42.15;21.77;;;4.60;75.60;;;;;;5046986;28;20115;-76
2022/01/13 00:38:22;;;;;;;44.28;22.42;;;4.60;75.80;;;;;;5048603;28;20380;-76
2022/01/13 00:40:48;;;;;;;43.53;21.60;;;4.60;76.00;;;;;;5048881;28;20036;-76
2022/01/13 00:43:14;;;;;;;43.15;21.25;;;4.50;75.80;;;;;;5051095;28;20021;-75
2022/01/13 00:45:39;;;;;;;45.78;22.38;;;4.50;76.00;;;;;;5051119;28;20033;-75
2022/01/13 00:48:05;;;;;;;39.60;21.42;;;4.40;76.00;;;;;;5050080;28;20028;-76
2022/01/13 00:50:31;;;;;;;43.65;21.58;;;4.40;76.50;;;;;;5049624;28;20518;-76
2022/01/13 00:52:56;;;;;;;46.38;21.90;;;4.40;76.40;;;;;;5050303;28;20040;-76
2022/01/13 00:55:32;;;;;;;47.58;22.50;;;4.50;76.00;;;;;;5057578;28;20108;-76
2022/01/13 00:57:57;;;;;;;45.00;22.48;;;4.50;75.80;;;;;;5056899;28;20028;-76
2022/01/13 01:00:23;;;;;;;41.67;21.15;;;4.40;76.10;;;;;;5056452;28;20048;-76
2022/01/13 01:02:49;;;;;;;40.90;21.02;;;4.40;76.50;;;;;;5048350;28;20040;-76
2022/01/13 01:05:14;;;;;;;47.60;21.25;;;4.30;76.30;;;;;;5047281;28;20034;-76
2022/01/13 01:07:40;;;;;;;42.25;21.20;;;4.30;76.80;;;;;;5049825;28;20025;-76
2022/01/13 01:10:07;;;;;;;49.70;21.77;;;4.30;76.60;;;;;;5048412;28;20036;-76
2022/01/13 01:12:35;;;;;;;46.20;23.20;;;4.20;76.80;;;;;;5047355;28;20629;-76
2022/01/13 01:15:01;;;;;;;44.17;21.33;;;4.30;76.90;;;;;;5047527;28;20108;-76
2022/01/13 01:17:27;;;;;;;43.25;21.85;;;4.20;77.20;;;;;;5055739;28;20502;-76
2022/01/13 01:19:52;;;;;;;45.53;22.70;;;4.20;77.60;;;;;;5048102;28;20481;-76
2022/01/13 01:27:35;;;;;;;43.03;22.42;;;4.20;77.80;;;;;;5051272;28;20033;-76
2022/01/13 01:30:09;;;;;;;45.45;21.92;;;4.20;78.00;;;;;;5051001;28;20032;-76
2022/01/13 01:32:37;;;;;;;45.25;22.27;;;4.10;78.00;;;;;;5050664;28;20025;-76
2022/01/13 01:35:04;;;;;;;43.03;21.63;;;4.20;78.30;;;;;;5051494;28;20060;-76
2022/01/13 01:37:30;;;;;;;42.65;20.67;;;4.20;78.00;;;;;;5054602;28;20018;-76
2022/01/13 01:39:59;;;;;;;42.88;21.63;;;4.20;77.90;;;;;;5051288;28;20040;-76
2022/01/13 01:42:26;;;;;;;41.42;20.60;;;4.10;78.10;;;;;;5051237;28;20029;-76
2022/01/13 01:44:55;;;;;;;44.40;20.77;;;4.10;77.90;;;;;;5050937;28;20143;-76
2022/01/13 01:47:24;;;;;;;45.17;22.20;;;4.00;77.70;;;;;;5050582;28;20083;-75
2022/01/13 01:49:55;;;;;;;41.22;20.27;;;3.90;77.90;;;;;;5052455;28;20021;-76
2022/01/13 01:52:21;;;;;;;45.40;21.63;;;3.90;78.50;;;;;;5053964;28;20025;-76
2022/01/13 01:54:48;;;;;;;45.00;21.15;;;4.00;78.30;;;;;;5055313;28;20549;-75
2022/01/13 01:57:15;;;;;;;41.35;21.48;;;4.00;78.20;;;;;;5050784;28;20033;-76
2022/01/13 01:59:42;;;;;;;40.00;21.08;;;3.90;78.30;;;;;;5051363;28;20025;-76
2022/01/13 02:02:11;;;;;;;44.03;20.98;;;3.80;78.20;;;;;;5050230;28;20053;-76
2022/01/13 02:04:37;;;;;;;44.08;21.95;;;3.90;78.20;;;;;;5053154;28;20017;-76
2022/01/13 02:07:07;;;;;;;44.42;22.40;;;3.90;78.40;;;;;;5052843;28;20023;-76
2022/01/13 02:09:35;;;;;;;49.28;23.40;;;3.90;78.40;;;;;;5050359;28;20029;-76
2022/01/13 02:12:06;;;;;;;47.75;23.13;;;3.90;78.40;;;;;;5050891;28;20032;-76
2022/01/13 02:14:48;;;;;;;47.67;21.85;;;3.80;78.30;;;;;;5050457;28;20025;-76
2022/01/13 02:17:22;;;;;;;44.00;22.45;;;3.90;78.90;;;;;;5045558;28;20033;-76
2022/01/13 02:19:50;;;;;;;48.00;24.20;;;3.80;78.70;;;;;;5050331;28;20029;-77
2022/01/13 02:22:16;;;;;;;44.47;23.08;;;3.90;79.20;;;;;;5052560;28;20116;-76
2022/01/13 02:24:42;;;;;;;45.38;22.13;;;3.90;79.00;;;;;;5050547;28;20483;-76
2022/01/13 02:27:08;;;;;;;49.35;22.98;;;3.80;79.10;;;;;;5050106;28;20033;-76
2022/01/13 02:29:35;;;;;;;45.40;22.83;;;3.80;79.30;;;;;;5049968;28;20174;-76
2022/01/13 02:32:01;;;;;;;48.22;22.90;;;3.70;79.00;;;;;;5049433;28;20506;-76
2022/01/13 02:34:27;;;;;;;45.60;22.40;;;3.80;79.50;;;;;;5050343;28;20032;-76
2022/01/13 02:36:54;;;;;;;43.42;21.63;;;3.80;79.00;;;;;;5049863;28;20029;-76
2022/01/13 02:39:21;;;;;;;45.72;23.40;;;3.80;79.30;;;;;;5050146;28;20033;-76
2022/01/13 02:41:47;;;;;;;51.60;24.52;;;3.80;79.40;;;;;;5049790;28;20079;-76
2022/01/13 02:44:17;;;;;;;51.63;24.63;;;3.90;79.40;;;;;;5050082;28;20033;-76
2022/01/13 02:49:12;;;;;;;54.70;25.40;;;3.90;79.50;;;;;;5050585;28;20136;-76
2022/01/13 02:51:40;;;;;;;52.58;23.63;;;3.90;79.30;;;;;;5050099;28;20104;-76
2022/01/13 02:54:06;;;;;;;52.00;25.45;;;3.90;79.80;;;;;;5049968;28;20017;-76
2022/01/13 02:56:33;;;;;;;53.42;24.40;;;3.90;80.00;;;;;;5049694;28;20017;-76
2022/01/13 02:58:59;;;;;;;60.85;24.60;;;4.00;79.60;;;;;;5042863;28;20052;-75
2022/01/13 03:01:25;;;;;;;51.38;24.83;;;4.00;79.60;;;;;;5051749;28;20079;-76
2022/01/13 03:03:51;;;;;;;56.22;25.17;;;4.00;79.50;;;;;;5049291;28;20052;-76
2022/01/13 03:06:32;;;;;;;50.20;24.50;;;4.00;79.30;;;;;;5049571;28;20031;-76
2022/01/13 03:08:58;;;;;;;61.65;24.95;;;4.00;79.70;;;;;;5042525;28;20020;-77
2022/01/13 03:11:31;;;;;;;48.60;24.50;;;3.90;80.00;;;;;;5049487;28;20463;-76
2022/01/13 03:13:57;;;;;;;48.63;22.48;;;3.90;80.40;;;;;;5049984;28;20029;-76
2022/01/13 03:16:22;;;;;;;50.22;25.73;;;3.90;80.30;;;;;;5051834;28;20029;-77
2022/01/13 03:18:48;;;;;;;57.08;23.73;;;3.90;80.40;;;;;;5049517;28;20021;-76
2022/01/13 03:21:14;;;;;;;47.25;24.77;;;3.80;80.80;;;;;;5048994;28;20036;-77
2022/01/13 03:23:39;;;;;;;49.35;24.35;;;3.90;80.90;;;;;;5049195;28;20025;-77
2022/01/13 03:26:05;;;;;;;52.30;25.10;;;4.00;80.50;;;;;;5050031;28;20028;-76
2022/01/13 03:28:37;;;;;;;54.38;25.95;;;3.90;80.50;;;;;;5051813;28;20507;-76
2022/01/13 03:31:03;;;;;;;53.45;24.73;;;3.90;80.40;;;;;;5050893;28;20037;-76
2022/01/13 03:33:30;;;;;;;59.50;27.50;;;4.00;80.50;;;;;;5049251;28;20402;-76
2022/01/13 03:35:56;;;;;;;57.88;25.30;;;3.90;80.30;;;;;;5050472;28;20032;-76
2022/01/13 03:38:22;;;;;;;60.53;25.67;;;3.90;80.60;;;;;;5050798;28;20028;-76
2022/01/13 03:40:48;;;;;;;57.95;24.70;;;3.90;80.40;;;;;;5050377;28;20392;-76
2022/01/13 03:43:16;;;;;;;52.55;25.67;;;3.90;80.70;;;;;;5051584;28;20492;-77
2022/01/13 03:45:42;;;;;;;55.53;24.42;;;4.00;80.70;;;;;;5050257;28;20020;-76
2022/01/13 03:48:10;;;;;;;56.17;23.88;;;4.00;80.70;;;;;;5051033;28;20017;-76
2022/01/13 03:50:36;;;;;;;55.63;24.63;;;4.00;80.60;;;;;;5049010;28;20036;-76
2022/01/13 03:53:28;;;;;;;57.88;25.55;;;3.90;80.80;;;;;;5049156;28;20014;-76
2022/01/13 03:56:31;;;;;;;63.65;25.95;;;3.90;80.70;;;;;;5050239;28;20100;-76
2022/01/13 03:59:33;;;;;;;57.38;26.63;;;3.90;81.10;;;;;;5048809;28;20025;-76
2022/01/13 04:02:11;;;;;;;60.67;25.17;;;3.80;81.50;;;;;;5048788;28;20140;-76
2022/01/13 04:04:41;;;;;;;56.35;26.00;;;3.90;81.40;;;;;;5048580;28;20049;-76
2022/01/13 04:07:25;;;;;;;61.30;26.50;;;3.80;81.50;;;;;;5047753;28;20029;-76
2022/01/13 04:10:22;;;;;;;54.70;25.10;;;3.90;82.00;;;;;;5048169;28;20033;-76
2022/01/13 04:12:48;;;;;;;53.15;26.10;;;3.90;81.70;;;;;;5048103;28;20033;-76
2022/01/13 04:15:17;;;;;;;53.17;24.75;;;3.90;81.90;;;;;;5048151;28;20025;-76
2022/01/13 04:17:43;;;;;;;56.33;26.00;;;3.90;81.80;;;;;;5048477;28;20021;-76
2022/01/13 04:20:09;;;;;;;56.00;26.58;;;3.80;82.00;;;;;;5049718;28;20032;-76
2022/01/13 04:22:35;;;;;;;48.35;23.83;;;3.80;82.40;;;;;;5050737;28;20139;-76
2022/01/13 04:25:01;;;;;;;53.40;25.85;;;3.90;82.20;;;;;;5050755;28;20096;-76
2022/01/13 04:27:32;;;;;;;59.33;27.15;;;3.80;82.00;;;;;;5050114;28;20021;-76
2022/01/13 04:30:23;;;;;;;52.38;25.83;;;3.80;82.20;;;;;;5049827;28;20048;-76
2022/01/13 04:32:47;;;;;;;53.13;24.25;;;3.80;82.20;;;;;;5049878;28;20837;-76
2022/01/13 04:35:13;;;;;;;49.55;25.05;;;3.80;82.30;;;;;;5050665;28;20025;-76
2022/01/13 04:37:39;;;;;;;52.10;24.95;;;3.80;82.10;;;;;;5050417;28;20027;-77
2022/01/13 04:40:08;;;;;;;53.88;24.92;;;3.80;82.70;;;;;;5050966;28;20029;-76
2022/01/13 04:42:36;;;;;;;52.03;25.77;;;3.80;82.40;;;;;;5049501;28;20027;-76
2022/01/13 04:45:03;;;;;;;52.80;26.45;;;3.80;82.10;;;;;;5049958;28;20037;-76
2022/01/13 04:47:29;;;;;;;59.72;28.20;;;3.80;81.90;;;;;;5050144;28;20056;-76
2022/01/13 04:49:55;;;;;;;51.35;26.80;;;3.80;82.00;;;;;;5050405;28;20036;-76
2022/01/13 04:52:21;;;;;;;51.50;24.85;;;3.80;82.10;;;;;;5051031;28;20021;-76
2022/01/13 04:54:46;;;;;;;54.05;26.13;;;3.80;82.70;;;;;;5050626;28;20029;-76
2022/01/13 04:57:17;;;;;;;54.67;25.55;;;3.80;82.50;;;;;;5055977;28;20088;-76
2022/01/13 04:59:43;;;;;;;55.03;27.10;;;3.80;82.70;;;;;;5057012;28;20053;-76
2022/01/13 05:02:09;;;;;;;60.22;28.25;;;3.80;82.90;;;;;;5046786;28;20049;-76
2022/01/13 05:04:35;;;;;;;61.70;28.67;;;3.80;83.20;;;;;;5057254;28;20091;-76
2022/01/13 05:07:00;;;;;;;57.20;26.60;;;3.80;82.80;;;;;;5056811;28;20120;-76
2022/01/13 05:09:26;;;;;;;61.00;28.50;;;3.80;82.70;;;;;;5056242;28;20032;-76
2022/01/13 05:11:52;;;;;;;56.25;27.77;;;3.90;82.40;;;;;;5056256;28;20028;-76
2022/01/13 05:14:18;;;;;;;60.55;27.17;;;3.80;82.40;;;;;;5056581;28;20523;-76
2022/01/13 05:19:58;;;;;;;58.30;26.38;;;3.80;82.60;;;;;;4977711;28;20133;-76
2022/01/13 05:22:24;;;;;;;57.78;26.30;;;3.80;82.80;;;;;;4980340;28;20042;-76
2022/01/13 05:24:49;;;;;;;54.88;26.48;;;3.80;82.80;;;;;;4978073;28;20041;-76
2022/01/13 05:27:15;;;;;;;55.28;27.30;;;3.80;82.60;;;;;;4978005;28;20042;-76
2022/01/13 05:29:41;;;;;;;60.13;27.95;;;3.80;82.80;;;;;;4978215;28;20117;-76
2022/01/13 05:32:07;;;;;;;59.80;27.85;;;3.80;83.00;;;;;;4974447;28;20041;-76
2022/01/13 05:34:33;;;;;;;58.50;28.77;;;3.80;83.20;;;;;;4979754;28;20069;-76
2022/01/13 05:36:58;;;;;;;61.65;27.33;;;3.80;82.80;;;;;;4979049;28;20034;-76
2022/01/13 05:39:24;;;;;;;72.68;29.73;;;3.80;83.10;;;;;;4977869;28;20030;-76
2022/01/13 05:41:50;;;;;;;57.67;26.88;;;3.80;83.40;;;;;;4977620;28;20039;-76
2022/01/13 05:44:15;;;;;;;64.47;29.02;;;3.80;83.40;;;;;;4976081;28;20150;-76
2022/01/13 05:46:41;;;;;;;62.55;28.45;;;3.80;83.40;;;;;;4978170;28;20038;-76
2022/01/13 05:49:07;;;;;;;58.20;26.58;;;3.80;83.10;;;;;;4978686;28;20037;-76
2022/01/13 05:51:33;;;;;;;64.00;29.70;;;3.80;83.40;;;;;;4978436;28;20113;-76
2022/01/13 05:53:59;;;;;;;64.47;27.25;;;3.80;83.10;;;;;;5023990;28;20033;-77
2022/01/13 05:56:24;;;;;;;62.38;26.65;;;3.80;83.40;;;;;;5055341;28;20090;-85
2022/01/13 05:58:50;;;;;;;60.85;26.70;;;3.80;83.70;;;;;;5054428;28;20025;-80
2022/01/13 06:01:17;;;;;;;67.07;28.35;;;3.80;83.80;;;;;;5056700;28;20529;-77
2022/01/13 06:03:43;;;;;;;73.50;29.75;;;3.70;84.10;;;;;;5055037;28;20498;-77
2022/01/13 06:06:09;;;;;;;60.90;28.25;;;3.60;84.10;;;;;;5054603;28;20259;-78
2022/01/13 06:08:35;;;;;;;61.85;27.33;;;3.70;84.00;;;;;;5050357;28;20025;-78
2022/01/13 06:11:00;;;;;;;60.90;26.55;;;3.70;84.10;;;;;;5051632;28;20056;-78
2022/01/13 06:13:26;;;;;;;65.28;28.60;;;3.70;84.00;;;;;;5053972;28;20059;-78
2022/01/13 06:15:52;;;;;;;60.33;28.45;;;3.70;84.00;;;;;;5051039;28;20029;-78
2022/01/13 06:18:17;;;;;;;61.40;28.00;;;3.60;84.00;;;;;;5051764;28;20033;-78
2022/01/13 06:20:43;;;;;;;60.25;27.55;;;3.60;84.10;;;;;;5051236;28;20029;-78
2022/01/13 06:23:11;;;;;;;62.38;28.02;;;3.60;84.40;;;;;;5050720;28;20104;-78
2022/01/13 06:25:37;;;;;;;66.90;28.85;;;3.60;84.80;;;;;;5053207;28;20064;-78
2022/01/13 06:28:04;;;;;;;65.95;28.58;;;3.50;84.90;;;;;;5051622;28;20515;-78
2022/01/13 06:30:30;;;;;;;64.47;28.55;;;3.50;84.90;;;;;;5051278;28;20040;-78
2022/01/13 06:32:57;;;;;;;63.63;28.77;;;3.40;85.20;;;;;;5051066;28;20025;-78
2022/01/13 06:35:23;;;;;;;61.05;28.50;;;3.50;85.40;;;;;;5041550;28;20032;-79
2022/01/13 06:37:48;;;;;;;58.08;27.80;;;3.50;85.60;;;;;;5051427;28;20028;-79
2022/01/13 06:40:15;;;;;;;57.83;27.38;;;3.40;85.40;;;;;;5052336;28;20028;-79
2022/01/13 06:42:41;;;;;;;63.10;28.08;;;3.50;85.70;;;;;;5050509;28;20025;-78
2022/01/13 06:45:10;;;;;;;59.15;25.90;;;3.50;85.50;;;;;;5050106;28;20082;-79
2022/01/13 06:47:37;;;;;;;68.80;29.80;;;3.50;85.60;;;;;;5050692;28;20407;-78
2022/01/13 06:50:04;;;;;;;60.70;28.52;;;3.60;85.20;;;;;;5050335;28;20128;-77
2022/01/13 06:52:29;;;;;;;56.22;27.15;;;3.60;85.20;;;;;;5052819;28;20029;-78
2022/01/13 06:54:55;;;;;;;58.58;27.45;;;3.50;84.90;;;;;;5050119;28;20506;-79
2022/01/13 06:57:21;;;;;;;59.00;26.95;;;3.60;85.20;;;;;;5052817;28;20040;-78
2022/01/13 06:59:47;;;;;;;60.85;27.42;;;3.60;85.10;;;;;;5055272;28;20104;-79
2022/01/13 07:02:14;;;;;;;64.38;26.63;;;3.60;85.70;;;;;;5049632;28;20069;-79
2022/01/13 07:04:39;;;;;;;59.97;28.05;;;3.60;85.40;;;;;;5052124;28;20495;-79
2022/01/13 07:07:05;;;;;;;58.95;25.35;;;3.60;85.20;;;;;;5050548;28;20029;-79
2022/01/13 07:09:31;;;;;;;62.60;26.63;;;3.60;85.30;;;;;;5049382;28;20044;-80
2022/01/13 07:11:57;;;;;;;61.35;28.90;;;3.60;85.30;;;;;;5049794;28;20033;-79
2022/01/13 07:14:23;;;;;;;60.42;27.17;;;3.70;85.20;;;;;;5049817;28;20033;-80
2022/01/13 07:16:48;;;;;;;65.35;26.23;;;3.60;85.00;;;;;;5051399;28;20098;-79
2022/01/13 07:19:15;;;;;;;59.92;28.90;;;3.70;85.00;;;;;;5050248;28;20036;-79
2022/01/13 07:21:44;;;;;;;57.13;28.17;;;3.60;84.90;;;;;;5048797;28;20372;-79
2022/01/13 07:24:10;;;;;;;68.55;28.83;;;3.60;85.00;;;;;;5049225;28;20082;-79
2022/01/13 07:26:37;;;;;;;58.97;28.95;;;3.60;85.00;;;;;;5049008;28;20017;-79
2022/01/13 07:29:04;;;;;;;61.00;27.38;;;3.70;84.80;;;;;;5049562;28;20032;-79
2022/01/13 07:31:30;;;;;;;57.33;27.10;;;3.70;84.60;;;;;;5048258;28;20032;-78
2022/01/13 07:33:57;;;;;;;64.00;27.25;;;3.70;84.90;;;;;;5049390;28;20115;-78
2022/01/13 07:36:23;;;;;;;54.20;26.80;;;3.60;84.90;;;;;;5048550;28;20024;-78
2022/01/13 07:38:49;;;;;;;63.13;27.77;;;3.60;85.10;;;;;;5048788;28;20025;-78
2022/01/13 07:41:14;;;;;;;66.55;26.98;;;3.60;85.20;;;;;;5050744;28;20431;-78
2022/01/13 07:43:43;;;;;;;56.95;28.23;;;3.70;85.00;;;;;;5046775;28;20029;-79
2022/01/13 07:46:09;;;;;;;60.78;28.50;;;3.70;85.20;;;;;;5045921;28;20434;-79
2022/01/13 07:48:35;;;;;;;63.75;28.92;;;3.70;85.00;;;;;;5044696;28;20032;-79
2022/01/13 07:51:00;;;;;;;62.13;29.60;;;3.70;84.80;;;;;;5044044;28;20037;-78
2022/01/13 07:53:26;;;;;;;58.35;28.60;;;3.80;85.20;;;;;;5044237;28;20100;-78
2022/01/13 07:55:52;;;;;;;70.18;29.45;;;3.80;84.90;;;;;;5046441;28;20170;-78
2022/01/13 07:58:18;;;;;;;67.22;30.73;;;3.80;85.00;;;;;;5045480;28;20109;-77
2022/01/13 08:00:43;;;;;;;80.03;34.03;;;3.90;85.10;;;;;;5043479;28;20045;-76
2022/01/13 08:03:09;;;;;;;77.15;33.78;;;3.90;84.70;;;;;;5043867;28;20499;-78
2022/01/13 08:05:35;;;;;;;80.25;34.95;;;3.90;84.60;;;;;;5044225;28;20511;-76
2022/01/13 08:08:01;;;;;;;75.95;35.17;;;4.00;84.90;;;;;;5037909;28;20369;-78
2022/01/13 08:10:27;;;;;;;77.45;37.15;;;4.00;84.70;;;;;;5046453;28;20388;-77
2022/01/13 08:12:52;;;;;;;87.13;36.30;;;4.10;84.70;;;;;;5042875;28;20040;-78
2022/01/13 08:15:18;;;;;;;95.97;41.08;;;4.20;84.10;;;;;;5043334;28;20086;-78
2022/01/13 08:20:33;;;;;;;84.35;37.22;;;4.40;83.20;;;;;;5043425;28;20419;-78
2022/01/13 08:22:59;;;;;;;78.00;34.33;;;4.50;82.70;;;;;;5044403;28;20063;-78
2022/01/13 08:25:26;;;;;;;72.28;33.83;;;4.60;82.50;;;;;;5045663;28;20035;-78
2022/01/13 08:27:53;;;;;;;84.70;35.15;;;4.70;82.40;;;;;;5041942;28;20032;-79
2022/01/13 08:30:19;;;;;;;91.97;37.90;;;5.10;81.80;;;;;;5042158;28;20496;-78
2022/01/13 08:32:45;;;;;;;82.43;34.78;;;6.90;76.30;;;;;;5043099;28;20128;-79
2022/01/13 08:35:12;;;;;;;76.15;32.35;;;9.50;65.80;;;;;;5043207;28;20044;-78
2022/01/13 08:37:38;;;;;;;80.70;33.55;;;11.70;58.70;;;;;;5045575;28;20033;-78
2022/01/13 08:40:06;;;;;;;72.93;32.05;;;13.00;55.00;;;;;;5040764;28;20044;-79
2022/01/13 08:42:33;;;;;;;69.03;33.10;;;13.90;52.40;;;;;;5043707;28;20162;-77
2022/01/13 08:44:59;;;;;;;74.63;31.83;;;14.60;50.40;;;;;;5049224;28;20039;-77
2022/01/13 08:47:25;;;;;;;61.25;30.48;;;15.20;49.10;;;;;;5050014;28;20025;-75
2022/01/13 08:49:51;;;;;;;72.50;30.83;;;15.30;48.10;;;;;;5049854;28;20028;-76
2022/01/13 08:52:17;;;;;;;80.88;37.25;;;15.50;47.90;;;;;;5052350;28;20029;-77
2022/01/13 08:54:46;;;;;;;82.72;36.47;;;15.50;47.20;;;;;;5049586;28;20187;-76
2022/01/13 08:57:12;;;;;;;79.72;36.58;;;15.40;46.70;;;;;;5049921;28;20036;-76
2022/01/13 08:59:38;;;;;;;71.88;35.53;;;14.50;48.30;;;;;;5050096;28;20043;-76
2022/01/13 09:02:04;;;;;;;65.13;33.42;;;13.30;50.90;;;;;;5048994;28;20532;-77
2022/01/13 09:04:30;;;;;;;71.97;33.83;;;12.00;53.80;;;;;;5050490;28;20021;-84
2022/01/13 09:06:55;;;;;;;63.80;33.55;;;10.80;56.40;;;;;;5049339;28;20032;-78
2022/01/13 09:09:21;;;;;;;63.60;32.72;;;10.10;58.50;;;;;;5049781;28;20048;-78
2022/01/13 09:11:47;;;;;;;58.55;30.48;;;9.60;60.10;;;;;;5045404;28;20393;-78
2022/01/13 09:14:15;;;;;;;59.67;32.13;;;9.10;61.50;;;;;;5041094;28;20036;-79
2022/01/13 09:16:43;;;;;;;67.03;33.60;;;9.00;62.40;;;;;;5040973;28;20374;-79
2022/01/13 09:19:13;;;;;;;62.58;33.05;;;8.90;62.90;;;;;;5046360;28;20463;-77
2022/01/13 09:21:44;;;;;;;60.78;33.00;;;9.00;63.10;;;;;;5042836;28;20041;-78
2022/01/13 09:24:13;;;;;;;58.35;31.15;;;8.80;63.20;;;;;;5045878;28;20099;-76
2022/01/13 09:26:40;;;;;;;68.15;32.90;;;9.00;63.30;;;;;;5046715;28;20032;-77
2022/01/13 09:29:07;;;;;;;66.82;32.97;;;9.00;63.20;;;;;;5046437;28;20321;-77
2022/01/13 09:31:35;;;;;;;62.47;31.98;;;8.80;63.40;;;;;;5049841;28;20176;-77
2022/01/13 09:34:03;;;;;;;63.63;32.28;;;8.80;63.60;;;;;;5048373;28;20025;-77
2022/01/13 09:36:30;;;;;;;60.83;30.85;;;8.80;63.90;;;;;;5046531;28;20072;-77
2022/01/13 09:39:02;;;;;;;60.40;30.60;;;8.90;63.70;;;;;;5046752;28;20040;-77
2022/01/13 09:41:30;;;;;;;61.90;31.48;;;8.90;64.10;;;;;;5047161;28;20025;-78
2022/01/13 09:43:57;;;;;;;64.22;30.60;;;8.80;63.50;;;;;;5051103;28;20098;-78
2022/01/13 09:46:26;;;;;;;59.70;30.70;;;8.90;63.80;;;;;;5053150;28;20600;-78
2022/01/13 09:48:53;;;;;;;67.00;31.20;;;8.90;63.70;;;;;;5049380;28;20037;-77
2022/01/13 09:51:19;;;;;;;59.63;29.55;;;9.00;64.00;;;;;;5043590;28;20049;-78
2022/01/13 09:53:44;;;;;;;58.10;29.85;;;9.20;63.40;;;;;;5049445;28;20037;-78
2022/01/13 09:56:10;;;;;;;65.40;31.35;;;9.20;63.30;;;;;;5051611;28;20040;-78
2022/01/13 09:58:36;;;;;;;63.88;30.30;;;9.30;63.30;;;;;;5052478;28;20025;-77
2022/01/13 10:01:03;;;;;;;61.20;29.25;;;9.40;63.30;;;;;;5050623;28;20045;-77
2022/01/13 10:03:30;;;;;;;65.38;31.50;;;9.50;63.10;;;;;;5049219;28;20471;-77
2022/01/13 10:05:58;;;;;;;64.95;30.25;;;9.60;62.70;;;;;;5046791;28;20025;-78
2022/01/13 10:08:43;;;;;;;57.55;29.48;;;9.60;61.80;;;;;;5046645;28;20115;-78
2022/01/13 10:11:24;;;;;;;59.20;29.23;;;9.60;62.30;;;;;;5049997;28;20056;-78
2022/01/13 10:14:02;;;;;;;65.53;30.20;;;9.80;61.80;;;;;;5052036;28;20025;-77
2022/01/13 10:16:28;;;;;;;60.95;30.45;;;9.80;61.60;;;;;;5053024;28;20036;-77
2022/01/13 10:18:54;;;;;;;65.72;30.73;;;10.00;61.70;;;;;;5049627;28;20040;-78
2022/01/13 10:21:21;;;;;;;67.07;30.08;;;10.10;61.80;;;;;;5049756;28;20492;-78
2022/01/13 10:24:01;;;;;;;65.50;30.10;;;10.20;61.40;;;;;;5047994;28;20025;-77
2022/01/13 10:26:28;;;;;;;67.40;30.05;;;10.20;61.40;;;;;;5049567;28;20045;-79
2022/01/13 10:28:54;;;;;;;69.97;30.98;;;10.30;60.90;;;;;;5051279;28;20040;-78
2022/01/13 10:31:20;;;;;;;60.45;28.67;;;10.30;60.90;;;;;;5052843;28;20032;-78
2022/01/13 10:33:45;;;;;;;57.10;28.27;;;10.30;60.30;;;;;;5049344;28;20028;-77
2022/01/13 10:36:13;;;;;;;58.42;27.75;;;10.20;60.00;;;;;;5050448;28;20037;-77
2022/01/13 10:39:05;;;;;;;61.03;28.63;;;10.10;60.10;;;;;;5049356;28;20063;-80
2022/01/13 10:41:49;;;;;;;57.50;27.48;;;9.90;60.10;;;;;;5043129;28;20025;-79
2022/01/13 10:44:18;;;;;;;64.97;31.48;;;10.00;60.60;;;;;;5038762;28;20507;-79
2022/01/13 10:47:02;;;;;;;63.22;30.35;;;10.00;60.60;;;;;;5048329;28;20116;-78
2022/01/13 10:49:40;;;;;;;64.85;31.95;;;10.10;60.30;;;;;;5050065;28;20483;-78
2022/01/13 10:52:26;;;;;;;63.53;31.05;;;10.10;60.00;;;;;;5048801;28;20518;-79
2022/01/13 10:55:03;;;;;;;63.50;31.35;;;10.30;60.00;;;;;;5044909;28;20511;-75
2022/01/13 10:57:30;;;;;;;56.50;28.35;;;10.40;59.90;;;;;;5043455;28;20032;-77
2022/01/13 10:59:56;;;;;;;61.80;28.85;;;10.40;59.30;;;;;;5046592;28;20368;-75
2022/01/13 11:02:24;;;;;;;63.60;30.40;;;10.50;59.60;;;;;;5046468;28;20073;-76
2022/01/13 11:04:49;;;;;;;57.50;28.98;;;10.60;58.90;;;;;;5046156;28;20024;-76
2022/01/13 11:07:19;;;;;;;55.35;27.75;;;10.70;58.60;;;;;;5049630;28;20025;-76
2022/01/13 11:10:00;;;;;;;57.70;29.45;;;10.90;58.70;;;;;;5046515;28;20037;-76
2022/01/13 11:12:38;;;;;;;59.22;29.17;;;10.90;58.50;;;;;;5047528;28;20454;-79
2022/01/13 11:15:07;;;;;;;57.72;29.25;;;11.10;58.90;;;;;;5039486;28;20036;-78
2022/01/13 11:17:37;;;;;;;64.60;30.55;;;11.10;57.80;;;;;;5046447;28;20013;-76
2022/01/13 11:20:06;;;;;;;58.00;27.83;;;11.20;57.80;;;;;;5047185;28;20516;-77
2022/01/13 11:22:35;;;;;;;59.50;28.25;;;11.40;57.40;;;;;;5047967;28;20044;-76
2022/01/13 11:25:07;;;;;;;66.15;31.10;;;11.50;57.00;;;;;;5049118;28;20116;-77
2022/01/13 11:27:33;;;;;;;59.05;29.05;;;11.60;57.30;;;;;;5048200;28;20029;-76
2022/01/13 11:30:00;;;;;;;56.83;28.23;;;11.60;56.60;;;;;;5048056;28;20040;-77
2022/01/13 11:32:26;;;;;;;63.30;30.42;;;11.90;56.40;;;;;;5048247;28;20503;-77
2022/01/13 11:34:53;;;;;;;60.47;30.75;;;11.90;56.40;;;;;;5049932;28;20172;-78
2022/01/13 11:37:19;;;;;;;59.63;30.80;;;12.00;56.40;;;;;;5050404;28;20032;-77
2022/01/13 11:39:45;;;;;;;60.25;30.05;;;12.00;56.80;;;;;;5046737;28;20033;-74
2022/01/13 11:42:14;;;;;;;59.17;28.80;;;12.30;55.90;;;;;;5047262;28;20025;-73
2022/01/13 11:44:42;;;;;;;57.88;29.08;;;12.40;55.60;;;;;;5047013;28;20497;-77
2022/01/13 11:47:24;;;;;;;57.75;28.48;;;12.50;55.70;;;;;;5047950;28;20431;-75
2022/01/13 11:50:04;;;;;;;62.17;28.75;;;12.60;54.80;;;;;;5049374;28;20051;-75
2022/01/13 11:52:43;;;;;;;55.17;27.60;;;12.80;55.30;;;;;;5047427;28;20492;-75
2022/01/13 11:55:38;;;;;;;53.15;27.95;;;13.00;54.50;;;;;;5050741;28;20035;-75
2022/01/13 11:58:13;;;;;;;55.72;28.75;;;12.90;53.80;;;;;;5047797;28;20504;-74
2022/01/13 12:00:41;;;;;;;54.78;29.13;;;13.10;53.80;;;;;;5047738;28;20124;-74
2022/01/13 12:03:26;;;;;;;57.65;31.30;;;13.30;55.10;;;;;;5048779;28;20142;-77
2022/01/13 12:05:53;;;;;;;54.78;29.75;;;13.40;53.90;;;;;;5047508;28;20024;-74
2022/01/13 12:08:58;;;;;;;61.83;29.38;;;13.60;53.80;;;;;;5049912;28;20033;-74
2022/01/13 12:11:46;;;;;;;52.85;28.20;;;13.70;54.00;;;;;;4962819;28;20039;-74
2022/01/13 12:14:27;;;;;;;58.58;28.77;;;13.80;53.80;;;;;;4961275;28;20042;-74
2022/01/13 12:17:19;;;;;;;56.47;29.13;;;13.90;52.80;;;;;;4969435;28;20036;-74
2022/01/13 12:19:48;;;;;;;54.63;29.92;;;14.00;52.50;;;;;;4966110;28;20545;-74
2022/01/13 12:22:51;;;;;;;56.58;26.70;;;14.30;52.80;;;;;;4970211;28;20047;-74
2022/01/13 12:25:20;;;;;;;54.25;28.02;;;14.60;52.10;;;;;;4969332;28;20042;-74
2022/01/13 12:27:51;;;;;;;47.38;27.10;;;14.90;51.70;;;;;;4969074;28;20091;-74
2022/01/13 12:30:27;;;;;;;46.58;26.27;;;16.20;51.30;;;;;;4968850;28;20047;-74
2022/01/13 12:33:02;;;;;;;54.70;28.75;;;18.50;48.60;;;;;;4969092;28;20027;-74
2022/01/13 12:35:39;;;;;;;51.45;27.73;;;20.60;44.10;;;;;;4968292;28;20038;-72
2022/01/13 12:38:20;;;;;;;47.72;26.50;;;22.70;41.60;;;;;;4967714;28;20512;-73
2022/01/13 12:41:13;;;;;;;50.35;27.10;;;24.10;39.60;;;;;;4957037;28;20401;-76
2022/01/13 12:43:51;;;;;;;49.28;26.33;;;25.10;38.50;;;;;;5046590;28;20295;-76
2022/01/13 12:46:22;;;;;;;49.30;27.52;;;25.70;36.90;;;;;;5046684;28;20095;-75
2022/01/13 12:48:49;;;;;;;46.80;25.52;;;25.90;36.40;;;;;;5047368;28;20132;-75
2022/01/13 12:51:17;;;;;;;46.00;25.38;;;25.70;36.00;;;;;;5041248;28;20514;-77
2022/01/13 12:53:44;;;;;;;44.53;24.65;;;25.00;35.30;;;;;;5047555;28;20154;-77
2022/01/13 12:56:19;;;;;;;44.75;25.20;;;23.20;36.00;;;;;;5047995;28;20512;-77
2022/01/13 12:58:58;;;;;;;41.80;24.02;;;22.00;38.20;;;;;;5047271;28;20075;-77
2022/01/13 13:01:27;;;;;;;49.17;26.20;;;24.00;38.60;;;;;;5048628;28;20490;-78
2022/01/13 13:04:01;;;;;;;57.28;26.23;;;25.50;37.20;;;;;;5046206;28;20033;-77